Time;durP1;ratioP1;P1;durP2;ratioP2;P2;SDS_P1;SDS_P2;PMS_P1;PMS_P2;Temp;Humidity;BMP_temperature;BMP_pressure;BME280_temperature;BME280_humidity;BME280_pressure;Samples;Min_cycle;Max_cycle;Signal;HPM_P1;HPM_P2
2022/01/06 00:00:46;;;;;;;3.40;1.25;;;;;;;;;;5091558;28;20422;-69
2022/01/06 00:03:12;;;;;;;5.13;1.20;;;;;;;;;;5092389;28;20421;-69
2022/01/06 00:05:38;;;;;;;3.90;1.30;;;;;;;;;;5075227;28;20085;-70
2022/01/06 00:08:04;;;;;;;4.85;1.42;;;;;;;;;;5093557;28;20043;-69
2022/01/06 00:10:31;;;;;;;6.82;1.58;;;;;;;;;;5091196;28;20032;-71
2022/01/06 00:15:41;;;;;;;7.55;1.30;;;;;;;;;;5087508;28;20071;-69
2022/01/06 00:18:18;;;;;;;5.90;1.20;;;;;;;;;;5092210;28;20467;-70
2022/01/06 00:23:38;;;;;;;5.03;1.38;;;;;;;;;;5090551;28;20035;-68
2022/01/06 00:26:04;;;;;;;7.93;1.50;;;;;;;;;;5075908;28;20710;-71
2022/01/06 00:28:30;;;;;;;5.80;1.60;;;;;;;;;;5073376;28;20552;-69
2022/01/06 00:30:56;;;;;;;5.90;1.30;;;;;;;;;;5094323;28;20020;-68
2022/01/06 00:33:23;;;;;;;6.53;1.58;;;;;;;;;;5092078;28;20028;-69
2022/01/06 00:35:49;;;;;;;5.07;1.70;;;;;;;;;;5091529;28;20066;-69
2022/01/06 00:38:15;;;;;;;3.35;1.15;;;;;;;;;;5083499;28;20029;-71
2022/01/06 00:40:41;;;;;;;4.82;1.10;;;;;;;;;;5066998;28;20024;-70
2022/01/06 00:43:08;;;;;;;4.93;1.52;;;;;;;;;;5083635;28;20123;-68
2022/01/06 00:45:36;;;;;;;6.90;1.45;;;;;;;;;;5083779;28;20512;-70
2022/01/06 00:48:02;;;;;;;5.88;1.33;;;;;;;;;;5070104;28;20036;-69
2022/01/06 00:50:28;;;;;;;11.52;1.40;;;;;;;;;;5074318;28;20020;-69
2022/01/06 00:52:53;;;;;;;4.57;1.20;;;;;;;;;;5065004;28;20527;-70
2022/01/06 00:55:19;;;;;;;2.85;1.17;;;;;;;;;;5083252;28;20024;-69
2022/01/06 00:57:45;;;;;;;6.35;1.40;;;;;;;;;;5087375;28;20379;-70
2022/01/06 01:00:12;;;;;;;4.55;1.20;;;;;;;;;;5069174;28;20025;-70
2022/01/06 01:02:38;;;;;;;4.07;1.45;;;;;;;;;;5085853;28;20054;-70
2022/01/06 01:05:04;;;;;;;10.00;1.40;;;;;;;;;;5080968;28;20027;-70
2022/01/06 01:07:30;;;;;;;6.55;1.13;;;;;;;;;;5084721;28;20036;-71
2022/01/06 01:09:56;;;;;;;5.38;1.05;;;;;;;;;;5083439;28;20095;-71
2022/01/06 01:12:25;;;;;;;8.18;1.10;;;;;;;;;;5066149;28;20032;-70
2022/01/06 01:14:58;;;;;;;3.15;1.20;;;;;;;;;;5081863;28;20017;-70
2022/01/06 01:17:26;;;;;;;2.92;0.98;;;;;;;;;;5085459;28;20112;-71
2022/01/06 01:19:52;;;;;;;3.97;1.13;;;;;;;;;;5062859;28;20025;-70
2022/01/06 01:22:18;;;;;;;9.23;1.25;;;;;;;;;;5082508;28;20032;-70
2022/01/06 01:24:44;;;;;;;3.65;0.93;;;;;;;;;;5082186;28;20028;-71
2022/01/06 01:27:10;;;;;;;5.05;1.00;;;;;;;;;;5075268;28;20089;-71
2022/01/06 01:29:45;;;;;;;6.95;1.13;;;;;;;;;;5093630;28;20055;-70
2022/01/06 01:32:11;;;;;;;2.80;1.10;;;;;;;;;;5075513;28;20516;-71
2022/01/06 01:34:40;;;;;;;6.78;1.23;;;;;;;;;;5093564;28;20061;-70
2022/01/06 01:37:06;;;;;;;5.35;1.17;;;;;;;;;;5081727;28;20496;-70
2022/01/06 01:39:31;;;;;;;5.63;1.00;;;;;;;;;;5083759;28;20498;-70
2022/01/06 01:41:57;;;;;;;4.40;1.10;;;;;;;;;;5065117;28;20169;-70
2022/01/06 01:44:23;;;;;;;2.35;1.00;;;;;;;;;;5081230;28;20028;-70
2022/01/06 01:47:00;;;;;;;4.65;1.05;;;;;;;;;;5084508;28;20383;-70
2022/01/06 01:51:52;;;;;;;5.50;0.90;;;;;;;;;;5083635;28;20028;-71
2022/01/06 01:54:18;;;;;;;2.92;0.90;;;;;;;;;;5080318;28;20082;-69
2022/01/06 01:56:45;;;;;;;6.10;1.05;;;;;;;;;;5081528;28;20028;-70
2022/01/06 01:59:12;;;;;;;4.55;0.90;;;;;;;;;;5083583;28;20066;-71
2022/01/06 02:01:38;;;;;;;9.68;0.90;;;;;;;;;;5083270;28;20506;-69
2022/01/06 02:04:04;;;;;;;5.95;0.93;;;;;;;;;;5087131;28;20057;-69
2022/01/06 02:06:30;;;;;;;3.28;0.93;;;;;;;;;;5084405;28;20039;-69
2022/01/06 02:08:56;;;;;;;2.72;0.90;;;;;;;;;;5060765;28;20028;-72
2022/01/06 02:11:23;;;;;;;7.00;1.10;;;;;;;;;;5083277;28;20024;-70
2022/01/06 02:13:53;;;;;;;6.22;1.08;;;;;;;;;;5084852;28;20032;-70
2022/01/06 02:16:20;;;;;;;3.13;0.90;;;;;;;;;;5067086;28;20021;-71
2022/01/06 02:18:46;;;;;;;3.70;1.10;;;;;;;;;;5082222;28;20476;-70
2022/01/06 02:21:16;;;;;;;8.30;1.20;;;;;;;;;;5064888;28;20455;-72
2022/01/06 02:23:42;;;;;;;2.65;1.02;;;;;;;;;;5082858;28;20031;-70
2022/01/06 02:26:08;;;;;;;4.15;1.02;;;;;;;;;;5081657;28;20090;-71
2022/01/06 02:28:35;;;;;;;2.85;0.93;;;;;;;;;;5081132;28;20542;-72
2022/01/06 02:31:01;;;;;;;10.30;1.00;;;;;;;;;;5063299;28;20024;-72
2022/01/06 02:33:27;;;;;;;5.20;1.00;;;;;;;;;;5086491;28;20379;-74
2022/01/06 02:35:54;;;;;;;2.50;0.90;;;;;;;;;;5081002;28;20017;-73
2022/01/06 02:38:21;;;;;;;4.32;0.95;;;;;;;;;;5084633;28;20025;-71
2022/01/06 02:40:47;;;;;;;3.63;1.17;;;;;;;;;;5083630;28;20040;-70
2022/01/06 02:43:16;;;;;;;4.38;1.15;;;;;;;;;;5082783;28;20026;-73
2022/01/06 02:45:42;;;;;;;2.88;1.00;;;;;;;;;;5063863;28;20141;-72
2022/01/06 02:48:08;;;;;;;2.33;0.82;;;;;;;;;;5062284;28;20438;-70
2022/01/06 02:50:38;;;;;;;5.32;1.10;;;;;;;;;;5083311;28;20577;-71
2022/01/06 02:53:06;;;;;;;2.55;0.93;;;;;;;;;;5054274;28;20025;-71
2022/01/06 02:55:35;;;;;;;2.10;0.85;;;;;;;;;;5071119;28;20024;-72
2022/01/06 02:58:01;;;;;;;2.65;0.80;;;;;;;;;;5112145;28;20080;-69
2022/01/06 03:00:27;;;;;;;2.40;0.82;;;;;;;;;;5112752;28;20023;-69
2022/01/06 03:02:53;;;;;;;2.97;0.95;;;;;;;;;;5070439;28;20024;-71
2022/01/06 03:05:19;;;;;;;1.38;0.70;;;;;;;;;;5064236;28;20383;-69
2022/01/06 03:07:46;;;;;;;2.15;0.70;;;;;;;;;;5081143;28;20471;-69
2022/01/06 03:10:14;;;;;;;1.65;0.93;;;;;;;;;;5086676;28;20086;-69
2022/01/06 03:12:40;;;;;;;3.50;0.75;;;;;;;;;;5082172;28;20020;-69
2022/01/06 03:15:10;;;;;;;3.33;0.90;;;;;;;;;;5075607;28;20023;-68
2022/01/06 03:17:37;;;;;;;1.30;0.70;;;;;;;;;;5058116;28;20032;-68
2022/01/06 03:20:04;;;;;;;4.28;1.00;;;;;;;;;;5077490;28;20027;-69
2022/01/06 03:22:30;;;;;;;3.13;1.00;;;;;;;;;;5075655;28;20411;-69
2022/01/06 03:24:56;;;;;;;2.78;0.90;;;;;;;;;;5086165;28;20031;-69
2022/01/06 03:27:22;;;;;;;3.10;1.00;;;;;;;;;;5085935;28;20056;-69
2022/01/06 03:29:50;;;;;;;2.92;1.00;;;;;;;;;;5066740;28;20024;-69
2022/01/06 03:32:16;;;;;;;9.02;1.17;;;;;;;;;;5085723;28;20028;-68
2022/01/06 03:34:42;;;;;;;4.30;0.90;;;;;;;;;;5083272;28;20059;-71
2022/01/06 03:37:08;;;;;;;3.20;1.10;;;;;;;;;;5067659;28;20036;-70
2022/01/06 03:39:34;;;;;;;1.85;0.80;;;;;;;;;;5084883;28;20024;-71
2022/01/06 03:42:00;;;;;;;3.08;0.93;;;;;;;;;;5085205;28;20031;-69
2022/01/06 03:44:26;;;;;;;1.92;0.73;;;;;;;;;;5067330;28;20025;-70
2022/01/06 03:46:54;;;;;;;4.75;0.90;;;;;;;;;;5067090;28;20055;-70
2022/01/06 03:49:21;;;;;;;6.20;0.95;;;;;;;;;;5085648;28;20468;-70
2022/01/06 03:51:47;;;;;;;3.65;0.85;;;;;;;;;;5084901;28;20060;-71
2022/01/06 03:54:13;;;;;;;4.30;0.90;;;;;;;;;;5086641;28;20093;-70
2022/01/06 03:56:39;;;;;;;5.20;1.08;;;;;;;;;;5085574;28;20489;-71
2022/01/06 03:59:05;;;;;;;6.28;1.20;;;;;;;;;;5088026;28;20024;-70
2022/01/06 04:01:31;;;;;;;3.05;0.88;;;;;;;;;;5080813;28;20024;-70
2022/01/06 04:03:57;;;;;;;5.05;1.00;;;;;;;;;;5075078;28;20020;-71
2022/01/06 04:06:23;;;;;;;3.50;1.00;;;;;;;;;;5057065;28;20033;-70
2022/01/06 04:08:49;;;;;;;5.75;0.90;;;;;;;;;;5090324;28;20506;-70
2022/01/06 04:11:15;;;;;;;3.08;0.75;;;;;;;;;;5074766;28;20025;-70
2022/01/06 04:13:42;;;;;;;3.47;0.90;;;;;;;;;;5084115;28;20048;-71
2022/01/06 04:16:10;;;;;;;4.72;0.80;;;;;;;;;;5083715;28;20510;-71
2022/01/06 04:18:36;;;;;;;6.68;0.90;;;;;;;;;;5083195;28;20025;-71
2022/01/06 04:21:03;;;;;;;10.38;1.00;;;;;;;;;;5084820;28;20039;-68
2022/01/06 04:23:29;;;;;;;5.20;0.73;;;;;;;;;;5084977;28;20056;-71
2022/01/06 04:25:55;;;;;;;5.22;0.80;;;;;;;;;;5083852;28;20063;-70
2022/01/06 04:28:21;;;;;;;4.28;0.77;;;;;;;;;;5083232;28;20395;-70
2022/01/06 04:30:47;;;;;;;2.25;0.95;;;;;;;;;;5086230;28;20052;-70
2022/01/06 04:33:13;;;;;;;4.75;0.90;;;;;;;;;;5083638;28;20121;-71
2022/01/06 04:35:38;;;;;;;6.30;1.00;;;;;;;;;;5064776;28;20535;-69
2022/01/06 04:38:04;;;;;;;4.20;1.20;;;;;;;;;;5064679;28;20040;-70
2022/01/06 04:40:30;;;;;;;9.07;1.00;;;;;;;;;;5084807;28;20105;-70
2022/01/06 04:42:56;;;;;;;2.20;0.60;;;;;;;;;;5083477;28;20051;-70
2022/01/06 04:45:22;;;;;;;3.33;0.68;;;;;;;;;;5085367;28;20024;-69
2022/01/06 04:47:48;;;;;;;2.22;0.85;;;;;;;;;;5084507;28;20075;-69
2022/01/06 04:50:14;;;;;;;5.10;0.90;;;;;;;;;;5083335;28;20023;-71
2022/01/06 04:52:40;;;;;;;3.67;0.77;;;;;;;;;;5084171;28;20024;-70
2022/01/06 04:55:07;;;;;;;8.52;1.10;;;;;;;;;;5084322;28;20057;-70
2022/01/06 04:57:33;;;;;;;2.28;0.85;;;;;;;;;;5083586;28;20494;-70
2022/01/06 04:59:59;;;;;;;5.18;0.90;;;;;;;;;;5085584;28;20111;-69
2022/01/06 05:02:25;;;;;;;2.65;0.95;;;;;;;;;;5083584;28;20152;-70
2022/01/06 05:04:51;;;;;;;4.47;0.90;;;;;;;;;;5082935;28;20050;-70
2022/01/06 05:07:17;;;;;;;3.33;0.80;;;;;;;;;;5084556;28;20036;-71
2022/01/06 05:09:43;;;;;;;2.72;0.80;;;;;;;;;;5084078;28;20149;-69
2022/01/06 05:12:10;;;;;;;5.00;0.73;;;;;;;;;;5078114;28;20046;-70
2022/01/06 05:14:35;;;;;;;2.00;0.70;;;;;;;;;;5086052;28;20027;-69
2022/01/06 05:17:02;;;;;;;2.45;0.70;;;;;;;;;;5093892;28;20028;-69
2022/01/06 05:19:28;;;;;;;2.72;0.75;;;;;;;;;;5093778;28;20024;-69
2022/01/06 05:21:54;;;;;;;1.10;0.60;;;;;;;;;;5089553;28;20021;-71
2022/01/06 05:24:23;;;;;;;3.08;0.88;;;;;;;;;;5064343;28;20036;-72
2022/01/06 05:26:49;;;;;;;3.55;0.80;;;;;;;;;;5082080;28;20052;-71
2022/01/06 05:29:15;;;;;;;3.53;0.50;;;;;;;;;;5086181;28;20031;-70
2022/01/06 05:31:41;;;;;;;2.72;0.80;;;;;;;;;;5080222;28;20028;-71
2022/01/06 05:34:07;;;;;;;5.68;0.80;;;;;;;;;;5083577;28;20058;-69
2022/01/06 05:36:34;;;;;;;2.35;0.80;;;;;;;;;;5084015;28;20025;-69
2022/01/06 05:39:00;;;;;;;3.58;1.00;;;;;;;;;;5063492;28;20036;-70
2022/01/06 05:41:27;;;;;;;3.03;0.80;;;;;;;;;;5083034;28;20081;-68
2022/01/06 05:43:53;;;;;;;1.27;0.57;;;;;;;;;;5082158;28;20040;-70
2022/01/06 05:46:19;;;;;;;1.00;0.50;;;;;;;;;;5083482;28;20036;-69
2022/01/06 05:48:45;;;;;;;4.55;0.82;;;;;;;;;;5083224;28;20036;-70
2022/01/06 05:51:12;;;;;;;6.32;0.65;;;;;;;;;;5082962;28;20027;-70
2022/01/06 05:53:38;;;;;;;1.90;0.80;;;;;;;;;;5083365;28;20111;-70
2022/01/06 05:56:04;;;;;;;1.23;0.73;;;;;;;;;;5083013;28;20147;-70
2022/01/06 05:58:30;;;;;;;5.53;0.80;;;;;;;;;;5085448;28;20482;-72
2022/01/06 06:00:56;;;;;;;1.63;0.65;;;;;;;;;;5065757;28;20032;-71
2022/01/06 06:03:23;;;;;;;2.30;0.70;;;;;;;;;;5079974;28;20020;-69
2022/01/06 06:05:49;;;;;;;3.20;0.60;;;;;;;;;;5083071;28;20025;-70
2022/01/06 06:08:15;;;;;;;3.00;1.00;;;;;;;;;;5082588;28;20044;-70
2022/01/06 06:10:41;;;;;;;1.98;0.70;;;;;;;;;;5081773;28;20031;-70
2022/01/06 06:13:07;;;;;;;2.45;0.68;;;;;;;;;;5081976;28;20038;-70
2022/01/06 06:15:35;;;;;;;2.33;0.60;;;;;;;;;;5083675;28;20030;-70
2022/01/06 06:18:04;;;;;;;1.80;0.80;;;;;;;;;;5080707;28;20023;-71
2022/01/06 06:20:30;;;;;;;2.20;0.70;;;;;;;;;;5082263;28;20020;-71
2022/01/06 06:22:57;;;;;;;2.85;0.75;;;;;;;;;;5083761;28;20105;-70
2022/01/06 06:25:23;;;;;;;2.38;0.70;;;;;;;;;;5083207;28;20463;-70
2022/01/06 06:27:49;;;;;;;9.15;0.80;;;;;;;;;;5064517;28;20103;-71
2022/01/06 06:30:15;;;;;;;5.70;0.65;;;;;;;;;;5082874;28;20462;-69
2022/01/06 06:32:41;;;;;;;5.38;0.80;;;;;;;;;;5083572;28;20028;-70
2022/01/06 06:35:07;;;;;;;4.65;0.75;;;;;;;;;;5080848;28;20028;-70
2022/01/06 06:37:33;;;;;;;3.83;0.80;;;;;;;;;;5082483;28;20496;-73
2022/01/06 06:39:59;;;;;;;1.45;0.70;;;;;;;;;;5087332;28;20038;-73
2022/01/06 06:42:25;;;;;;;2.17;0.65;;;;;;;;;;5071980;28;20025;-69
2022/01/06 06:44:51;;;;;;;2.45;0.63;;;;;;;;;;5095560;28;20031;-70
2022/01/06 06:47:17;;;;;;;2.92;0.77;;;;;;;;;;5096735;28;20028;-69
2022/01/06 06:49:43;;;;;;;2.22;0.60;;;;;;;;;;5096266;28;20020;-70
2022/01/06 06:52:10;;;;;;;0.95;0.50;;;;;;;;;;5095822;28;20445;-70
2022/01/06 06:54:36;;;;;;;1.85;0.68;;;;;;;;;;5093883;28;20016;-69
2022/01/06 06:57:02;;;;;;;4.10;0.73;;;;;;;;;;5092703;28;20128;-72
2022/01/06 06:59:28;;;;;;;4.35;0.50;;;;;;;;;;5095381;28;20039;-70
2022/01/06 07:01:54;;;;;;;1.33;0.68;;;;;;;;;;5077322;28;20016;-71
2022/01/06 07:04:20;;;;;;;1.45;0.70;;;;;;;;;;5091509;28;20106;-70
2022/01/06 07:06:46;;;;;;;2.22;0.60;;;;;;;;;;5090135;28;20359;-70
2022/01/06 07:09:12;;;;;;;1.30;0.60;;;;;;;;;;5092585;28;20035;-69
2022/01/06 07:11:38;;;;;;;1.67;0.70;;;;;;;;;;5091011;28;20107;-74
2022/01/06 07:14:04;;;;;;;7.60;0.75;;;;;;;;;;5063040;28;20052;-76
2022/01/06 07:16:30;;;;;;;4.88;0.80;;;;;;;;;;5086515;28;20035;-76
2022/01/06 07:18:56;;;;;;;4.85;0.95;;;;;;;;;;5088971;28;20501;-76
2022/01/06 07:21:22;;;;;;;3.78;0.80;;;;;;;;;;5089115;28;20089;-74
2022/01/06 07:23:48;;;;;;;4.22;0.82;;;;;;;;;;5092550;28;20107;-76
2022/01/06 07:26:14;;;;;;;3.22;1.00;;;;;;;;;;5089977;28;20407;-76
2022/01/06 07:28:40;;;;;;;2.10;0.70;;;;;;;;;;5086491;28;20035;-76
2022/01/06 07:31:07;;;;;;;6.60;0.90;;;;;;;;;;5071623;28;20074;-77
2022/01/06 07:33:33;;;;;;;4.22;1.10;;;;;;;;;;5092389;28;20028;-77
2022/01/06 07:35:59;;;;;;;6.53;1.08;;;;;;;;;;5073833;28;20025;-77
2022/01/06 07:38:25;;;;;;;10.40;1.13;;;;;;;;;;5087844;28;20032;-72
2022/01/06 07:40:51;;;;;;;9.60;1.30;;;;;;;;;;5087629;28;20463;-74
2022/01/06 07:43:17;;;;;;;11.85;1.17;;;;;;;;;;5093821;28;20020;-71
2022/01/06 07:45:44;;;;;;;6.60;1.25;;;;;;;;;;5076463;28;20029;-74
2022/01/06 07:48:17;;;;;;;2.92;1.15;;;;;;;;;;5091842;28;20398;-73
2022/01/06 07:50:44;;;;;;;5.32;1.35;;;;;;;;;;5087504;28;20012;-74
2022/01/06 07:53:11;;;;;;;5.75;0.93;;;;;;;;;;5090798;28;20028;-71
2022/01/06 07:55:37;;;;;;;6.63;1.63;;;;;;;;;;5077786;28;20022;-71
2022/01/06 07:58:03;;;;;;;4.90;1.15;;;;;;;;;;5100669;28;20094;-72
2022/01/06 08:00:29;;;;;;;6.60;1.10;;;;;;;;;;5113549;28;20020;-74
2022/01/06 08:02:55;;;;;;;4.15;1.02;;;;;;;;;;5077797;28;20054;-72
2022/01/06 08:05:24;;;;;;;3.55;1.10;;;;;;;;;;5089772;28;20024;-74
2022/01/06 08:07:50;;;;;;;3.40;1.08;;;;;;;;;;5082578;28;20123;-72
2022/01/06 08:10:17;;;;;;;8.18;1.40;;;;;;;;;;5083044;28;20123;-75
2022/01/06 08:12:43;;;;;;;12.90;1.15;;;;;;;;;;5093250;28;20020;-72
2022/01/06 08:15:09;;;;;;;5.40;1.38;;;;;;;;;;5067303;28;20111;-74
2022/01/06 08:17:36;;;;;;;5.20;1.40;;;;;;;;;;5063650;28;20093;-76
2022/01/06 08:20:03;;;;;;;6.18;1.30;;;;;;;;;;5064493;28;20103;-72
2022/01/06 08:22:29;;;;;;;3.58;1.15;;;;;;;;;;5084346;28;20033;-69
2022/01/06 08:24:56;;;;;;;7.57;2.15;;;;;;;;;;5061275;28;20025;-70
2022/01/06 08:27:23;;;;;;;8.57;0.88;;;;;;;;;;5075196;28;20098;-71
2022/01/06 08:29:50;;;;;;;9.73;1.00;;;;;;;;;;5092668;28;20074;-71
2022/01/06 08:32:16;;;;;;;4.45;1.38;;;;;;;;;;5094616;28;20120;-71
2022/01/06 08:34:45;;;;;;;4.90;1.10;;;;;;;;;;5077581;28;20118;-73
2022/01/06 08:37:11;;;;;;;4.55;1.15;;;;;;;;;;5075815;28;20020;-72
2022/01/06 08:39:37;;;;;;;6.20;1.35;;;;;;;;;;5071375;28;20118;-72
2022/01/06 08:42:03;;;;;;;4.70;1.30;;;;;;;;;;5075981;28;20107;-71
2022/01/06 08:44:29;;;;;;;4.55;0.90;;;;;;;;;;5090768;28;20500;-72
2022/01/06 08:46:56;;;;;;;10.98;1.23;;;;;;;;;;5090947;28;20033;-72
2022/01/06 08:49:22;;;;;;;9.02;1.30;;;;;;;;;;5086469;28;20016;-72
2022/01/06 08:51:48;;;;;;;7.38;1.48;;;;;;;;;;5091981;28;20044;-72
2022/01/06 08:54:14;;;;;;;7.47;0.95;;;;;;;;;;5074799;28;20020;-72
2022/01/06 08:56:40;;;;;;;5.32;1.52;;;;;;;;;;5090371;28;20091;-69
2022/01/06 08:59:06;;;;;;;5.47;1.00;;;;;;;;;;5073823;28;20165;-71
2022/01/06 09:01:33;;;;;;;4.18;0.98;;;;;;;;;;5090204;28;20032;-71
2022/01/06 09:03:59;;;;;;;6.80;0.98;;;;;;;;;;5059942;28;20032;-75
2022/01/06 09:06:25;;;;;;;3.40;1.10;;;;;;;;;;5076856;28;20025;-74
2022/01/06 09:08:51;;;;;;;3.38;0.95;;;;;;;;;;5066397;28;20401;-72
2022/01/06 09:11:18;;;;;;;7.15;1.00;;;;;;;;;;5077967;28;20043;-72
2022/01/06 09:13:44;;;;;;;7.70;1.13;;;;;;;;;;5083816;28;20026;-68
2022/01/06 09:16:10;;;;;;;11.05;1.40;;;;;;;;;;5083407;28;20099;-70
2022/01/06 09:18:37;;;;;;;13.63;1.17;;;;;;;;;;5065077;28;20050;-70
2022/01/06 09:21:03;;;;;;;6.65;1.35;;;;;;;;;;5063347;28;20067;-71
2022/01/06 09:23:29;;;;;;;8.07;1.10;;;;;;;;;;5085110;28;20030;-71
2022/01/06 09:25:55;;;;;;;8.88;1.02;;;;;;;;;;5091243;28;20032;-72
2022/01/06 09:28:21;;;;;;;4.63;1.20;;;;;;;;;;5093468;28;20036;-71
2022/01/06 09:30:50;;;;;;;9.18;1.38;;;;;;;;;;5093883;28;20024;-74
2022/01/06 09:33:16;;;;;;;10.32;1.65;;;;;;;;;;5093695;28;20463;-73
2022/01/06 09:35:42;;;;;;;4.55;1.42;;;;;;;;;;5089160;28;20028;-71
2022/01/06 09:38:09;;;;;;;9.80;1.02;;;;;;;;;;5061959;28;20056;-73
2022/01/06 09:40:35;;;;;;;11.38;0.90;;;;;;;;;;5065832;28;20031;-71
2022/01/06 09:43:01;;;;;;;9.10;1.30;;;;;;;;;;5086399;28;20031;-73
2022/01/06 09:45:28;;;;;;;10.38;1.08;;;;;;;;;;5081973;28;20025;-73
2022/01/06 09:47:54;;;;;;;2.97;1.13;;;;;;;;;;5088411;28;20032;-72
2022/01/06 09:50:20;;;;;;;3.92;1.08;;;;;;;;;;5083572;28;20035;-70
2022/01/06 09:52:47;;;;;;;4.47;1.13;;;;;;;;;;5063951;28;20029;-72
2022/01/06 09:55:13;;;;;;;4.20;0.90;;;;;;;;;;5063251;28;20019;-71
2022/01/06 09:57:39;;;;;;;6.15;1.15;;;;;;;;;;5086070;28;20036;-74
2022/01/06 10:00:08;;;;;;;4.88;1.35;;;;;;;;;;5069389;28;20085;-71
2022/01/06 10:02:36;;;;;;;3.30;1.30;;;;;;;;;;5084067;28;20032;-75
2022/01/06 10:05:02;;;;;;;12.93;1.35;;;;;;;;;;5085593;28;20059;-73
2022/01/06 10:07:34;;;;;;;7.25;1.23;;;;;;;;;;5060460;28;20123;-73
2022/01/06 10:10:11;;;;;;;3.80;0.93;;;;;;;;;;5083260;28;20016;-72
2022/01/06 10:12:39;;;;;;;3.42;0.90;;;;;;;;;;5083171;28;20028;-72
2022/01/06 10:15:16;;;;;;;3.50;1.00;;;;;;;;;;5083853;28;20397;-72
2022/01/06 10:17:42;;;;;;;8.77;1.48;;;;;;;;;;5073290;28;20455;-72
2022/01/06 10:20:09;;;;;;;4.32;1.27;;;;;;;;;;5091754;28;20055;-72
2022/01/06 10:22:42;;;;;;;4.32;1.23;;;;;;;;;;5092246;28;20093;-71
2022/01/06 10:25:09;;;;;;;4.13;1.27;;;;;;;;;;5092413;28;20020;-71
2022/01/06 10:27:34;;;;;;;3.97;1.02;;;;;;;;;;5063606;28;20070;-69
2022/01/06 10:30:05;;;;;;;4.55;1.00;;;;;;;;;;5079576;28;20518;-70
2022/01/06 10:32:32;;;;;;;4.88;1.00;;;;;;;;;;5085399;28;20067;-72
2022/01/06 10:35:04;;;;;;;4.00;1.20;;;;;;;;;;5065729;28;20017;-71
2022/01/06 10:37:34;;;;;;;6.10;1.40;;;;;;;;;;5080642;28;20036;-73
2022/01/06 10:40:02;;;;;;;10.40;1.15;;;;;;;;;;5085811;28;20075;-74
2022/01/06 10:42:30;;;;;;;6.22;1.30;;;;;;;;;;5058891;28;20032;-75
2022/01/06 10:44:59;;;;;;;3.70;1.25;;;;;;;;;;5070144;28;20060;-75
2022/01/06 10:47:30;;;;;;;9.73;1.48;;;;;;;;;;5098170;28;20031;-75
2022/01/06 10:50:07;;;;;;;11.68;1.40;;;;;;;;;;5081958;28;20028;-74
2022/01/06 10:52:33;;;;;;;7.65;1.15;;;;;;;;;;5089154;28;20024;-74
2022/01/06 10:55:08;;;;;;;7.57;1.35;;;;;;;;;;5082953;28;20103;-69
2022/01/06 10:57:34;;;;;;;5.82;1.77;;;;;;;;;;5057337;28;20519;-73
2022/01/06 11:00:00;;;;;;;18.67;1.63;;;;;;;;;;5089260;28;20115;-72
2022/01/06 11:02:26;;;;;;;5.88;1.30;;;;;;;;;;5084614;28;20459;-73
2022/01/06 11:04:52;;;;;;;7.75;1.48;;;;;;;;;;5081559;28;20032;-71
2022/01/06 11:07:18;;;;;;;9.02;1.60;;;;;;;;;;5062180;28;20043;-69
2022/01/06 11:09:48;;;;;;;6.80;1.42;;;;;;;;;;5068966;28;20024;-75
2022/01/06 11:12:26;;;;;;;5.55;1.42;;;;;;;;;;5080048;28;20540;-68
2022/01/06 11:14:53;;;;;;;5.10;1.65;;;;;;;;;;5082752;28;20036;-72
2022/01/06 11:17:21;;;;;;;6.75;1.42;;;;;;;;;;5064526;28;20047;-78
2022/01/06 11:19:49;;;;;;;6.28;1.30;;;;;;;;;;5083436;28;20028;-69
2022/01/06 11:22:15;;;;;;;6.70;1.58;;;;;;;;;;5063131;28;20029;-77
2022/01/06 11:24:52;;;;;;;10.00;1.50;;;;;;;;;;5083345;28;20028;-78
2022/01/06 11:27:19;;;;;;;10.35;1.50;;;;;;;;;;5058580;28;20040;-74
2022/01/06 11:29:44;;;;;;;14.55;1.67;;;;;;;;;;5076794;28;20028;-75
2022/01/06 11:32:21;;;;;;;5.28;1.35;;;;;;;;;;5072343;28;20438;-74
2022/01/06 11:34:50;;;;;;;4.05;1.42;;;;;;;;;;5090702;28;20032;-74
2022/01/06 11:37:16;;;;;;;11.75;1.40;;;;;;;;;;5091482;28;20069;-75
2022/01/06 11:39:42;;;;;;;8.48;1.80;;;;;;;;;;5089010;28;20051;-74
2022/01/06 11:42:16;;;;;;;5.20;1.50;;;;;;;;;;5088929;28;20028;-76
2022/01/06 11:44:50;;;;;;;9.88;1.48;;;;;;;;;;5094494;28;20028;-75
2022/01/06 11:47:16;;;;;;;5.22;1.50;;;;;;;;;;5072563;28;20040;-80
2022/01/06 11:49:43;;;;;;;6.22;1.48;;;;;;;;;;5094619;28;20354;-75
2022/01/06 11:52:14;;;;;;;4.20;1.33;;;;;;;;;;5077879;28;20103;-75
2022/01/06 11:54:54;;;;;;;5.35;1.60;;;;;;;;;;5064648;28;20032;-75
2022/01/06 11:57:46;;;;;;;5.40;1.13;;;;;;;;;;5083077;28;20028;-75
2022/01/06 12:00:14;;;;;;;5.57;1.23;;;;;;;;;;5083874;28;20070;-77
2022/01/06 12:02:40;;;;;;;8.93;1.35;;;;;;;;;;5085896;28;20483;-73
2022/01/06 12:05:07;;;;;;;12.07;1.52;;;;;;;;;;5059932;28;20035;-76
2022/01/06 12:07:33;;;;;;;9.43;1.63;;;;;;;;;;5081558;28;20119;-75
2022/01/06 12:10:09;;;;;;;12.55;1.40;;;;;;;;;;5079918;28;20111;-72
2022/01/06 12:12:37;;;;;;;3.22;1.13;;;;;;;;;;5079681;28;20506;-71
2022/01/06 12:15:10;;;;;;;13.32;1.92;;;;;;;;;;5084060;28;20039;-69
2022/01/06 12:17:36;;;;;;;8.88;1.30;;;;;;;;;;5076636;28;20016;-73
2022/01/06 12:20:04;;;;;;;8.38;1.48;;;;;;;;;;5083239;28;20036;-78
2022/01/06 12:22:30;;;;;;;11.32;1.55;;;;;;;;;;5083498;28;20032;-71
2022/01/06 12:25:03;;;;;;;18.70;1.80;;;;;;;;;;5064734;28;20120;-70
2022/01/06 12:27:30;;;;;;;9.80;1.60;;;;;;;;;;5087558;28;20040;-71
2022/01/06 12:29:56;;;;;;;13.70;1.52;;;;;;;;;;5086646;28;20081;-72
2022/01/06 12:32:22;;;;;;;5.45;1.70;;;;;;;;;;5064154;28;20028;-76
2022/01/06 12:34:54;;;;;;;12.23;1.30;;;;;;;;;;5083877;28;20519;-76
2022/01/06 12:37:24;;;;;;;9.80;1.40;;;;;;;;;;5085462;28;20071;-72
2022/01/06 12:39:50;;;;;;;11.13;1.50;;;;;;;;;;5082869;28;20036;-71
2022/01/06 12:42:16;;;;;;;9.38;1.40;;;;;;;;;;5085350;28;20020;-73
2022/01/06 12:44:42;;;;;;;12.48;1.80;;;;;;;;;;5080919;28;20029;-72
2022/01/06 12:47:09;;;;;;;7.68;1.20;;;;;;;;;;5087943;28;20107;-71
2022/01/06 12:49:35;;;;;;;9.15;1.70;;;;;;;;;;5065687;28;20036;-74
2022/01/06 12:52:01;;;;;;;6.60;1.20;;;;;;;;;;5086731;28;20048;-74
2022/01/06 12:54:30;;;;;;;10.07;1.58;;;;;;;;;;5089096;28;20017;-72
2022/01/06 12:56:57;;;;;;;5.68;1.42;;;;;;;;;;5074578;28;20040;-72
2022/01/06 12:59:27;;;;;;;6.57;1.13;;;;;;;;;;5090495;28;20036;-73
2022/01/06 13:01:57;;;;;;;6.43;1.20;;;;;;;;;;5086217;28;20074;-72
2022/01/06 13:04:27;;;;;;;9.23;1.50;;;;;;;;;;5072909;28;20024;-72
2022/01/06 13:06:55;;;;;;;13.30;1.38;;;;;;;;;;5090131;28;20063;-72
2022/01/06 13:09:21;;;;;;;7.30;1.10;;;;;;;;;;5070033;28;20032;-73
2022/01/06 13:11:55;;;;;;;10.23;1.20;;;;;;;;;;5077052;28;20028;-70
2022/01/06 13:14:42;;;;;;;8.40;0.95;;;;;;;;;;5085636;28;20054;-71
2022/01/06 13:17:29;;;;;;;6.32;1.40;;;;;;;;;;5081892;28;20042;-71
2022/01/06 13:19:55;;;;;;;8.52;1.55;;;;;;;;;;5090386;28;20111;-70
2022/01/06 13:25:14;;;;;;;;;;;;;;;;;;5091577;28;20069;-72
2022/01/06 13:27:41;;;;;;;7.28;1.20;;;;;;;;;;5090455;28;19921;-71
2022/01/06 13:30:07;;;;;;;6.57;1.48;;;;;;;;;;5091741;28;20502;-71
2022/01/06 13:32:33;;;;;;;6.78;1.30;;;;;;;;;;5089669;28;20089;-74
2022/01/06 13:35:01;;;;;;;11.60;1.35;;;;;;;;;;5092495;28;20024;-73
2022/01/06 13:37:28;;;;;;;8.20;1.27;;;;;;;;;;5068490;28;20099;-76
2022/01/06 13:39:59;;;;;;;13.63;1.80;;;;;;;;;;5093179;28;20020;-74
2022/01/06 13:42:27;;;;;;;7.13;1.40;;;;;;;;;;5075803;28;20080;-76
2022/01/06 13:44:56;;;;;;;7.10;1.50;;;;;;;;;;5083433;28;20016;-73
2022/01/06 13:47:46;;;;;;;14.95;1.48;;;;;;;;;;5072971;28;20380;-73
2022/01/06 13:52:57;;;;;;;8.25;1.20;;;;;;;;;;5080486;28;20043;-76
2022/01/06 13:55:23;;;;;;;7.18;1.80;;;;;;;;;;5091788;28;20020;-76
2022/01/06 13:57:49;;;;;;;19.02;1.80;;;;;;;;;;5086968;28;20016;-77
2022/01/06 14:00:16;;;;;;;5.43;1.27;;;;;;;;;;5070400;28;20115;-73
2022/01/06 14:02:42;;;;;;;5.43;1.40;;;;;;;;;;5094015;28;20115;-73
2022/01/06 14:05:08;;;;;;;10.15;1.58;;;;;;;;;;5093416;28;20423;-73
2022/01/06 14:07:34;;;;;;;8.07;1.15;;;;;;;;;;5075234;28;20034;-74
2022/01/06 14:10:05;;;;;;;8.65;1.27;;;;;;;;;;5087398;28;20103;-71
2022/01/06 14:12:31;;;;;;;6.40;1.33;;;;;;;;;;5091037;28;20020;-72
2022/01/06 14:14:57;;;;;;;4.90;1.42;;;;;;;;;;5073405;28;20110;-72
2022/01/06 14:17:23;;;;;;;6.43;1.48;;;;;;;;;;5068616;28;20438;-73
2022/01/06 14:19:49;;;;;;;6.43;1.85;;;;;;;;;;5088503;28;20458;-72
2022/01/06 14:22:15;;;;;;;7.53;1.83;;;;;;;;;;5090965;28;20024;-71
2022/01/06 14:24:42;;;;;;;7.57;1.50;;;;;;;;;;5094193;28;20032;-78
2022/01/06 14:27:08;;;;;;;7.50;1.30;;;;;;;;;;5094307;28;20075;-73
2022/01/06 14:29:35;;;;;;;3.97;1.42;;;;;;;;;;5077180;28;20077;-73
2022/01/06 14:32:01;;;;;;;17.77;2.45;;;;;;;;;;5073999;28;20032;-74
2022/01/06 14:34:27;;;;;;;9.77;1.77;;;;;;;;;;5083553;28;20028;-78
2022/01/06 14:36:55;;;;;;;12.48;1.50;;;;;;;;;;5082268;28;20016;-73
2022/01/06 14:39:22;;;;;;;15.75;2.25;;;;;;;;;;5083071;28;20024;-77
2022/01/06 14:41:48;;;;;;;12.18;2.08;;;;;;;;;;5065656;28;20113;-76
2022/01/06 14:44:14;;;;;;;10.02;2.10;;;;;;;;;;5075224;28;20387;-75
2022/01/06 14:46:40;;;;;;;14.93;1.90;;;;;;;;;;5074164;28;20016;-75
2022/01/06 14:49:06;;;;;;;13.98;2.08;;;;;;;;;;5060624;28;20032;-73
2022/01/06 14:51:33;;;;;;;12.57;1.88;;;;;;;;;;5084830;28;20095;-73
2022/01/06 14:53:59;;;;;;;14.98;2.03;;;;;;;;;;5086991;28;20020;-73